Shannon, Ireland
Current Conditions -  °F | °C
As of 3:30 PM on Friday 28 Nov 2014 (Local Time) from EINN Reporting Station
Few Clouds Few Clouds  
Wind Chill: 54°   Ceiling: Unl
Heat Index: 54°   Visibility: 6mi
Dew Point: 48°   Wind: 12mph
Humidity: 82%   Direction: 70°ENE
Pressure: 29.56"   Gusts: NA
Location:  52.71°N, 8.87°W
Report Text: EINN 281530Z 07010KT 9999 FEW022 12/09 Q1001 NOSIG
Loading
Personal Weather Stations






























Interactive Weather Map New forecast layout! Learn more

10-Day Weather Forecast

Advertisements
Track Severe Weather on mobile